sensor_id;sensor_type;location;lat;lon;timestamp;pressure;altitude;pressure_sealevel;temperature;humidity
73457;BME280;61691;53.072;6.582;2024-01-30T00:01:36;102615.91;;;6.32;83.51
73457;BME280;61691;53.072;6.582;2024-01-30T00:04:03;102620.28;;;6.33;83.33
73457;BME280;61691;53.072;6.582;2024-01-30T00:06:29;102608.16;;;6.29;83.76
73457;BME280;61691;53.072;6.582;2024-01-30T00:08:56;102625.22;;;6.41;83.60
73457;BME280;61691;53.072;6.582;2024-01-30T00:11:23;102621.72;;;6.40;83.68
73457;BME280;61691;53.072;6.582;2024-01-30T00:13:52;102606.34;;;6.31;83.83
73457;BME280;61691;53.072;6.582;2024-01-30T00:16:22;102617.16;;;6.45;84.20
73457;BME280;61691;53.072;6.582;2024-01-30T00:18:51;102605.91;;;6.40;83.92
73457;BME280;61691;53.072;6.582;2024-01-30T00:21:19;102609.34;;;6.42;83.99
73457;BME280;61691;53.072;6.582;2024-01-30T00:23:47;102611.66;;;6.50;84.01
73457;BME280;61691;53.072;6.582;2024-01-30T00:26:14;102620.22;;;6.55;83.96
73457;BME280;61691;53.072;6.582;2024-01-30T00:28:43;102610.53;;;6.55;84.60
73457;BME280;61691;53.072;6.582;2024-01-30T00:31:10;102591.44;;;6.50;84.37
73457;BME280;61691;53.072;6.582;2024-01-30T00:33:40;102591.44;;;6.50;84.27
73457;BME280;61691;53.072;6.582;2024-01-30T00:36:08;102568.13;;;6.41;84.09
73457;BME280;61691;53.072;6.582;2024-01-30T00:38:35;102578.16;;;6.53;84.54
73457;BME280;61691;53.072;6.582;2024-01-30T00:41:02;102594.63;;;6.58;84.61
73457;BME280;61691;53.072;6.582;2024-01-30T00:43:29;102593.81;;;6.56;84.83
73457;BME280;61691;53.072;6.582;2024-01-30T00:45:56;102594.47;;;6.61;84.89
73457;BME280;61691;53.072;6.582;2024-01-30T00:48:22;102596.31;;;6.59;84.77
73457;BME280;61691;53.072;6.582;2024-01-30T00:50:49;102573.94;;;6.49;84.98
73457;BME280;61691;53.072;6.582;2024-01-30T00:53:16;102590.53;;;6.51;85.56
73457;BME280;61691;53.072;6.582;2024-01-30T00:55:43;102584.34;;;6.52;85.10
73457;BME280;61691;53.072;6.582;2024-01-30T00:58:10;102570.63;;;6.44;85.22
73457;BME280;61691;53.072;6.582;2024-01-30T01:00:36;102556.78;;;6.39;85.13
73457;BME280;61691;53.072;6.582;2024-01-30T01:03:03;102583.59;;;6.49;84.98
73457;BME280;61691;53.072;6.582;2024-01-30T01:05:30;102573.28;;;6.44;85.27
73457;BME280;61691;53.072;6.582;2024-01-30T01:07:57;102588.00;;;6.48;85.29
73457;BME280;61691;53.072;6.582;2024-01-30T01:10:24;102507.41;;;6.04;85.27
73457;BME280;61691;53.072;6.582;2024-01-30T01:12:50;102565.44;;;6.43;85.84
73457;BME280;61691;53.072;6.582;2024-01-30T01:15:19;102565.63;;;6.38;85.83
73457;BME280;61691;53.072;6.582;2024-01-30T01:17:45;102561.34;;;6.36;85.71
73457;BME280;61691;53.072;6.582;2024-01-30T01:20:12;102551.09;;;6.30;85.68
73457;BME280;61691;53.072;6.582;2024-01-30T01:22:39;102549.44;;;6.27;85.69
73457;BME280;61691;53.072;6.582;2024-01-30T01:25:06;102558.66;;;6.37;85.88
73457;BME280;61691;53.072;6.582;2024-01-30T01:27:34;102570.75;;;6.41;86.10
73457;BME280;61691;53.072;6.582;2024-01-30T01:30:09;102572.59;;;6.39;85.72
73457;BME280;61691;53.072;6.582;2024-01-30T01:32:36;102576.81;;;6.43;85.83
73457;BME280;61691;53.072;6.582;2024-01-30T01:35:04;102558.06;;;6.31;86.18
73457;BME280;61691;53.072;6.582;2024-01-30T01:37:34;102561.41;;;6.34;86.13
73457;BME280;61691;53.072;6.582;2024-01-30T01:40:00;102558.94;;;6.31;86.28
73457;BME280;61691;53.072;6.582;2024-01-30T01:42:27;102572.59;;;6.39;86.45
73457;BME280;61691;53.072;6.582;2024-01-30T01:44:54;102567.47;;;6.36;86.25
73457;BME280;61691;53.072;6.582;2024-01-30T01:47:21;102583.00;;;6.42;86.23
73457;BME280;61691;53.072;6.582;2024-01-30T01:49:48;102556.34;;;6.30;86.91
73457;BME280;61691;53.072;6.582;2024-01-30T01:52:15;102554.56;;;6.30;87.02
73457;BME280;61691;53.072;6.582;2024-01-30T01:54:42;102551.03;;;6.31;86.98
73457;BME280;61691;53.072;6.582;2024-01-30T01:57:09;102563.78;;;6.40;86.86
73457;BME280;61691;53.072;6.582;2024-01-30T01:59:36;102546.66;;;6.30;87.04
73457;BME280;61691;53.072;6.582;2024-01-30T02:02:03;102565.44;;;6.43;86.61
73457;BME280;61691;53.072;6.582;2024-01-30T02:04:31;102543.25;;;6.28;86.76
73457;BME280;61691;53.072;6.582;2024-01-30T02:06:58;102542.84;;;6.37;86.87
73457;BME280;61691;53.072;6.582;2024-01-30T02:09:25;102525.59;;;6.30;87.22
73457;BME280;61691;53.072;6.582;2024-01-30T02:11:51;102544.56;;;6.38;87.58
73457;BME280;61691;53.072;6.582;2024-01-30T02:14:18;102515.84;;;6.32;86.87
73457;BME280;61691;53.072;6.582;2024-01-30T02:16:45;102527.63;;;6.44;87.19
73457;BME280;61691;53.072;6.582;2024-01-30T02:19:12;102520.06;;;6.36;87.11
73457;BME280;61691;53.072;6.582;2024-01-30T02:21:39;102547.59;;;6.49;87.40
73457;BME280;61691;53.072;6.582;2024-01-30T02:24:05;102539.56;;;6.52;86.99
73457;BME280;61691;53.072;6.582;2024-01-30T02:26:32;102539.56;;;6.52;87.19
73457;BME280;61691;53.072;6.582;2024-01-30T02:28:59;102524.78;;;6.48;87.73
73457;BME280;61691;53.072;6.582;2024-01-30T02:31:26;102501.47;;;6.39;87.94
73457;BME280;61691;53.072;6.582;2024-01-30T02:33:53;102488.72;;;6.30;88.08
73457;BME280;61691;53.072;6.582;2024-01-30T02:36:19;102527.81;;;6.59;87.77
73457;BME280;61691;53.072;6.582;2024-01-30T02:38:46;102499.47;;;6.46;88.13
73457;BME280;61691;53.072;6.582;2024-01-30T02:41:13;102526.09;;;6.58;87.72
73457;BME280;61691;53.072;6.582;2024-01-30T02:43:40;102485.75;;;6.38;87.96
73457;BME280;61691;53.072;6.582;2024-01-30T02:46:07;102510.41;;;6.55;87.62
73457;BME280;61691;53.072;6.582;2024-01-30T02:48:34;102509.72;;;6.52;87.57
73457;BME280;61691;53.072;6.582;2024-01-30T02:51:00;102517.28;;;6.59;88.00
73457;BME280;61691;53.072;6.582;2024-01-30T02:53:27;102511.22;;;6.57;87.65
73457;BME280;61691;53.072;6.582;2024-01-30T02:55:53;102500.97;;;6.51;88.12
73457;BME280;61691;53.072;6.582;2024-01-30T02:58:20;102488.81;;;6.47;87.83
73457;BME280;61691;53.072;6.582;2024-01-30T03:00:47;102494.78;;;6.52;87.81
73457;BME280;61691;53.072;6.582;2024-01-30T03:03:14;102498.03;;;6.57;87.91
73457;BME280;61691;53.072;6.582;2024-01-30T03:05:40;102498.03;;;6.57;88.15
73457;BME280;61691;53.072;6.582;2024-01-30T03:08:07;102477.38;;;6.48;88.05
73457;BME280;61691;53.072;6.582;2024-01-30T03:10:34;102474.69;;;6.50;88.19
73457;BME280;61691;53.072;6.582;2024-01-30T03:13:00;102487.28;;;6.62;88.77
73457;BME280;61691;53.072;6.582;2024-01-30T03:15:27;102465.00;;;6.50;88.57
73457;BME280;61691;53.072;6.582;2024-01-30T03:17:54;102473.41;;;6.58;88.43
73457;BME280;61691;53.072;6.582;2024-01-30T03:20:21;102473.25;;;6.61;88.41
73457;BME280;61691;53.072;6.582;2024-01-30T03:22:47;102474.72;;;6.69;88.24
73457;BME280;61691;53.072;6.582;2024-01-30T03:25:14;102488.53;;;6.74;88.53
73457;BME280;61691;53.072;6.582;2024-01-30T03:27:41;102467.50;;;6.72;88.21
73457;BME280;61691;53.072;6.582;2024-01-30T03:30:08;102414.56;;;6.39;88.63
73457;BME280;61691;53.072;6.582;2024-01-30T03:32:34;102472.56;;;6.77;88.80
73457;BME280;61691;53.072;6.582;2024-01-30T03:35:01;102465.97;;;6.68;88.47
73457;BME280;61691;53.072;6.582;2024-01-30T03:37:28;102457.31;;;6.65;88.28
73457;BME280;61691;53.072;6.582;2024-01-30T03:39:55;102462.19;;;6.74;88.68
73457;BME280;61691;53.072;6.582;2024-01-30T03:42:22;102454.56;;;6.68;88.71
73457;BME280;61691;53.072;6.582;2024-01-30T03:44:49;102458.75;;;6.72;88.88
73457;BME280;61691;53.072;6.582;2024-01-30T03:47:18;102448.44;;;6.67;88.64
73457;BME280;61691;53.072;6.582;2024-01-30T03:49:45;102431.69;;;6.68;88.80
73457;BME280;61691;53.072;6.582;2024-01-30T03:52:12;102442.00;;;6.73;88.91
73457;BME280;61691;53.072;6.582;2024-01-30T03:54:38;102452.25;;;6.79;88.97
73457;BME280;61691;53.072;6.582;2024-01-30T03:57:05;102451.47;;;6.77;89.11
73457;BME280;61691;53.072;6.582;2024-01-30T03:59:32;102440.16;;;6.75;88.95
73457;BME280;61691;53.072;6.582;2024-01-30T04:01:59;102392.94;;;6.51;88.90
73457;BME280;61691;53.072;6.582;2024-01-30T04:04:27;102373.16;;;6.43;88.92
73457;BME280;61691;53.072;6.582;2024-01-30T04:06:54;102427.69;;;6.78;89.29
73457;BME280;61691;53.072;6.582;2024-01-30T04:09:20;102426.56;;;6.84;89.18
73457;BME280;61691;53.072;6.582;2024-01-30T04:11:47;102426.28;;;6.90;89.44
73457;BME280;61691;53.072;6.582;2024-01-30T04:14:14;102431.25;;;6.96;89.43
73457;BME280;61691;53.072;6.582;2024-01-30T04:16:40;102417.28;;;6.94;89.38
73457;BME280;61691;53.072;6.582;2024-01-30T04:19:07;102429.25;;;7.01;89.82
73457;BME280;61691;53.072;6.582;2024-01-30T04:21:34;102424.53;;;7.08;89.70
73457;BME280;61691;53.072;6.582;2024-01-30T04:24:01;102429.81;;;7.08;89.35
73457;BME280;61691;53.072;6.582;2024-01-30T04:26:27;102419.25;;;7.08;89.38
73457;BME280;61691;53.072;6.582;2024-01-30T04:28:54;102428.22;;;7.22;89.27
73457;BME280;61691;53.072;6.582;2024-01-30T04:31:21;102436.00;;;7.25;89.44
73457;BME280;61691;53.072;6.582;2024-01-30T04:33:48;102427.94;;;7.28;89.10
73457;BME280;61691;53.072;6.582;2024-01-30T04:36:15;102404.78;;;7.16;89.32
73457;BME280;61691;53.072;6.582;2024-01-30T04:38:41;102409.00;;;7.20;89.14
73457;BME280;61691;53.072;6.582;2024-01-30T04:41:08;102426.38;;;7.24;89.32
73457;BME280;61691;53.072;6.582;2024-01-30T04:43:35;102431.34;;;7.30;89.33
73457;BME280;61691;53.072;6.582;2024-01-30T04:46:02;102438.31;;;7.31;89.15
73457;BME280;61691;53.072;6.582;2024-01-30T04:48:29;102431.34;;;7.30;88.88
73457;BME280;61691;53.072;6.582;2024-01-30T04:50:56;102448.75;;;7.34;89.26
73457;BME280;61691;53.072;6.582;2024-01-30T04:53:23;102344.94;;;6.82;88.92
73457;BME280;61691;53.072;6.582;2024-01-30T04:55:49;102414.09;;;7.23;88.88
73457;BME280;61691;53.072;6.582;2024-01-30T04:58:16;102425.78;;;7.36;88.90
73457;BME280;61691;53.072;6.582;2024-01-30T05:00:43;102422.28;;;7.36;88.74
73457;BME280;61691;53.072;6.582;2024-01-30T05:03:10;102418.63;;;7.38;89.03
73457;BME280;61691;53.072;6.582;2024-01-30T05:05:36;102400.09;;;7.40;88.57
73457;BME280;61691;53.072;6.582;2024-01-30T05:08:03;102404.44;;;7.41;89.13
73457;BME280;61691;53.072;6.582;2024-01-30T05:10:30;102399.94;;;7.43;88.85
73457;BME280;61691;53.072;6.582;2024-01-30T05:12:57;102365.56;;;7.27;88.98
73457;BME280;61691;53.072;6.582;2024-01-30T05:15:24;102379.13;;;7.37;88.58
73457;BME280;61691;53.072;6.582;2024-01-30T05:17:50;102393.81;;;7.43;88.71
73457;BME280;61691;53.072;6.582;2024-01-30T05:20:17;102403.50;;;7.42;88.78
73457;BME280;61691;53.072;6.582;2024-01-30T05:22:44;102404.38;;;7.43;88.69
73457;BME280;61691;53.072;6.582;2024-01-30T05:25:13;102396.38;;;7.44;88.36
73457;BME280;61691;53.072;6.582;2024-01-30T05:27:40;102403.50;;;7.42;88.73
73457;BME280;61691;53.072;6.582;2024-01-30T05:30:07;102409.34;;;7.49;88.54
73457;BME280;61691;53.072;6.582;2024-01-30T05:32:34;102378.00;;;7.43;88.65
73457;BME280;61691;53.072;6.582;2024-01-30T05:35:01;102306.84;;;7.07;88.23
73457;BME280;61691;53.072;6.582;2024-01-30T05:37:27;102359.84;;;7.36;88.13
73457;BME280;61691;53.072;6.582;2024-01-30T05:39:54;102374.44;;;7.44;88.46
73457;BME280;61691;53.072;6.582;2024-01-30T05:42:21;102363.53;;;7.32;88.39
73457;BME280;61691;53.072;6.582;2024-01-30T05:44:47;102401.19;;;7.53;88.51
73457;BME280;61691;53.072;6.582;2024-01-30T05:47:14;102395.34;;;7.47;88.27
73457;BME280;61691;53.072;6.582;2024-01-30T05:49:42;102377.19;;;7.41;88.18
73457;BME280;61691;53.072;6.582;2024-01-30T05:52:08;102378.00;;;7.43;88.24
73457;BME280;61691;53.072;6.582;2024-01-30T05:54:36;102402.97;;;7.53;88.02
73457;BME280;61691;53.072;6.582;2024-01-30T05:57:03;102358.88;;;7.20;88.20
73457;BME280;61691;53.072;6.582;2024-01-30T05:59:29;102377.50;;;7.34;87.97
73457;BME280;61691;53.072;6.582;2024-01-30T06:01:56;102398.78;;;7.49;88.02
73457;BME280;61691;53.072;6.582;2024-01-30T06:04:23;102409.19;;;7.52;88.21
73457;BME280;61691;53.072;6.582;2024-01-30T06:06:50;102385.72;;;7.46;88.09
73457;BME280;61691;53.072;6.582;2024-01-30T06:09:17;102408.88;;;7.58;87.85
73457;BME280;61691;53.072;6.582;2024-01-30T06:11:44;102391.72;;;7.49;87.85
73457;BME280;61691;53.072;6.582;2024-01-30T06:14:11;102396.63;;;7.57;87.98
73457;BME280;61691;53.072;6.582;2024-01-30T06:16:38;102405.47;;;7.56;87.99
73457;BME280;61691;53.072;6.582;2024-01-30T06:19:04;102404.53;;;7.57;87.85
73457;BME280;61691;53.072;6.582;2024-01-30T06:21:32;102395.59;;;7.59;87.87
73457;BME280;61691;53.072;6.582;2024-01-30T06:24:03;102382.50;;;7.58;87.46
73457;BME280;61691;53.072;6.582;2024-01-30T06:26:30;102349.09;;;7.39;87.80
73457;BME280;61691;53.072;6.582;2024-01-30T06:28:56;102354.72;;;7.51;87.64
73457;BME280;61691;53.072;6.582;2024-01-30T06:31:23;102385.34;;;7.70;87.65
73457;BME280;61691;53.072;6.582;2024-01-30T06:33:50;102378.44;;;7.68;87.48
73457;BME280;61691;53.072;6.582;2024-01-30T06:36:17;102368.06;;;7.65;87.60
73457;BME280;61691;53.072;6.582;2024-01-30T06:38:44;102366.16;;;7.67;87.80
73457;BME280;61691;53.072;6.582;2024-01-30T06:41:10;102374.88;;;7.69;87.53
73457;BME280;61691;53.072;6.582;2024-01-30T06:43:37;102378.22;;;7.72;87.61
73457;BME280;61691;53.072;6.582;2024-01-30T06:46:04;102354.69;;;7.68;87.72
73457;BME280;61691;53.072;6.582;2024-01-30T06:48:31;102353.59;;;7.72;87.61
73457;BME280;61691;53.072;6.582;2024-01-30T06:50:57;102381.31;;;7.81;87.41
73457;BME280;61691;53.072;6.582;2024-01-30T06:53:24;102383.84;;;7.82;87.42
73457;BME280;61691;53.072;6.582;2024-01-30T06:55:52;102362.31;;;7.74;87.34
73457;BME280;61691;53.072;6.582;2024-01-30T06:58:19;102360.09;;;7.82;87.65
73457;BME280;61691;53.072;6.582;2024-01-30T07:00:46;102355.00;;;7.79;87.38
73457;BME280;61691;53.072;6.582;2024-01-30T07:03:13;102349.53;;;7.82;87.63
73457;BME280;61691;53.072;6.582;2024-01-30T07:05:39;102348.78;;;7.80;87.52
73457;BME280;61691;53.072;6.582;2024-01-30T07:08:06;102363.03;;;7.93;87.46
73457;BME280;61691;53.072;6.582;2024-01-30T07:10:33;102368.19;;;7.96;87.47
73457;BME280;61691;53.072;6.582;2024-01-30T07:13:01;102379.66;;;7.95;87.17
73457;BME280;61691;53.072;6.582;2024-01-30T07:15:28;102362.34;;;7.90;87.31
73457;BME280;61691;53.072;6.582;2024-01-30T07:17:55;102372.59;;;7.96;87.18
73457;BME280;61691;53.072;6.582;2024-01-30T07:20:22;102367.16;;;7.99;87.12
73457;BME280;61691;53.072;6.582;2024-01-30T07:22:49;102364.44;;;8.00;87.19
73457;BME280;61691;53.072;6.582;2024-01-30T07:25:16;102356.75;;;7.96;87.15
73457;BME280;61691;53.072;6.582;2024-01-30T07:27:43;102357.75;;;7.93;87.10
73457;BME280;61691;53.072;6.582;2024-01-30T07:30:10;102377.19;;;7.92;87.12
73457;BME280;61691;53.072;6.582;2024-01-30T07:32:37;102387.41;;;7.98;87.00
73457;BME280;61691;53.072;6.582;2024-01-30T07:35:04;102330.19;;;7.66;86.97
73457;BME280;61691;53.072;6.582;2024-01-30T07:37:34;102396.03;;;8.02;87.00
73457;BME280;61691;53.072;6.582;2024-01-30T07:40:02;102403.72;;;8.06;86.75
73457;BME280;61691;53.072;6.582;2024-01-30T07:42:30;102377.19;;;7.92;87.15
73457;BME280;61691;53.072;6.582;2024-01-30T07:44:57;102381.81;;;8.04;87.25
73457;BME280;61691;53.072;6.582;2024-01-30T07:47:25;102392.22;;;8.07;87.20
73457;BME280;61691;53.072;6.582;2024-01-30T07:49:52;102396.56;;;8.08;86.96
73457;BME280;61691;53.072;6.582;2024-01-30T07:52:19;102374.84;;;8.03;87.46
73457;BME280;61691;53.072;6.582;2024-01-30T07:54:50;102371.25;;;8.04;87.03
73457;BME280;61691;53.072;6.582;2024-01-30T07:57:17;102349.59;;;7.98;86.96
73457;BME280;61691;53.072;6.582;2024-01-30T07:59:45;102384.75;;;8.15;87.08
73457;BME280;61691;53.072;6.582;2024-01-30T08:02:14;102402.22;;;8.18;87.28
73457;BME280;61691;53.072;6.582;2024-01-30T08:04:41;102396.25;;;8.14;87.29
73457;BME280;61691;53.072;6.582;2024-01-30T08:07:08;102381.41;;;8.12;87.35
73457;BME280;61691;53.072;6.582;2024-01-30T08:09:35;102395.16;;;8.19;87.18
73457;BME280;61691;53.072;6.582;2024-01-30T08:12:02;102400.25;;;8.22;87.39
73457;BME280;61691;53.072;6.582;2024-01-30T08:14:29;102385.13;;;8.25;87.06
73457;BME280;61691;53.072;6.582;2024-01-30T08:16:56;102356.97;;;8.08;87.13
73457;BME280;61691;53.072;6.582;2024-01-30T08:19:22;102389.38;;;8.28;87.44
73457;BME280;61691;53.072;6.582;2024-01-30T08:21:49;102412.63;;;8.38;87.65
73457;BME280;61691;53.072;6.582;2024-01-30T08:24:16;102395.38;;;8.31;87.27
73457;BME280;61691;53.072;6.582;2024-01-30T08:26:43;102402.13;;;8.37;86.78
73457;BME280;61691;53.072;6.582;2024-01-30T08:29:10;102415.00;;;8.43;87.08
73457;BME280;61691;53.072;6.582;2024-01-30T08:31:37;102400.84;;;8.44;87.33
73457;BME280;61691;53.072;6.582;2024-01-30T08:34:04;102392.66;;;8.33;87.16
73457;BME280;61691;53.072;6.582;2024-01-30T08:36:31;102408.63;;;8.47;86.98
73457;BME280;61691;53.072;6.582;2024-01-30T08:38:57;102418.78;;;8.54;87.07
73457;BME280;61691;53.072;6.582;2024-01-30T08:41:29;102410.59;;;8.59;87.22
73457;BME280;61691;53.072;6.582;2024-01-30T08:43:56;102412.81;;;8.51;86.85
73457;BME280;61691;53.072;6.582;2024-01-30T08:46:23;102415.88;;;8.59;86.80
73457;BME280;61691;53.072;6.582;2024-01-30T08:48:50;102418.97;;;8.67;86.91
73457;BME280;61691;53.072;6.582;2024-01-30T08:51:17;102410.53;;;8.61;86.68
73457;BME280;61691;53.072;6.582;2024-01-30T08:53:44;102401.06;;;8.72;86.78
73457;BME280;61691;53.072;6.582;2024-01-30T08:56:11;102420.53;;;8.71;87.10
73457;BME280;61691;53.072;6.582;2024-01-30T08:58:37;102435.88;;;8.80;87.11
73457;BME280;61691;53.072;6.582;2024-01-30T09:01:05;102446.28;;;8.83;86.77
73457;BME280;61691;53.072;6.582;2024-01-30T09:03:32;102445.28;;;8.86;86.56
73457;BME280;61691;53.072;6.582;2024-01-30T09:05:59;102416.59;;;8.78;86.66
73457;BME280;61691;53.072;6.582;2024-01-30T09:08:26;102430.41;;;8.83;86.42
73457;BME280;61691;53.072;6.582;2024-01-30T09:10:53;102428.22;;;8.91;86.35
73457;BME280;61691;53.072;6.582;2024-01-30T09:13:20;102447.31;;;8.97;86.22
73457;BME280;61691;53.072;6.582;2024-01-30T09:15:46;102437.59;;;8.97;86.49
73457;BME280;61691;53.072;6.582;2024-01-30T09:18:13;102443.56;;;9.01;86.23
73457;BME280;61691;53.072;6.582;2024-01-30T09:20:40;102438.63;;;8.95;86.10
73457;BME280;61691;53.072;6.582;2024-01-30T09:23:07;102395.03;;;8.70;86.36
73457;BME280;61691;53.072;6.582;2024-01-30T09:25:34;102444.09;;;9.07;85.83
73457;BME280;61691;53.072;6.582;2024-01-30T09:28:01;102442.38;;;9.06;86.10
73457;BME280;61691;53.072;6.582;2024-01-30T09:30:27;102418.13;;;8.98;86.12
73457;BME280;61691;53.072;6.582;2024-01-30T09:32:54;102388.38;;;8.79;86.17
73457;BME280;61691;53.072;6.582;2024-01-30T09:35:21;102432.13;;;9.16;86.23
73457;BME280;61691;53.072;6.582;2024-01-30T09:37:48;102437.44;;;9.16;86.14
73457;BME280;61691;53.072;6.582;2024-01-30T09:40:15;102422.56;;;9.13;86.26
73457;BME280;61691;53.072;6.582;2024-01-30T09:42:50;102447.88;;;9.33;85.91
73457;BME280;61691;53.072;6.582;2024-01-30T09:45:18;102445.94;;;9.37;85.96
73457;BME280;61691;53.072;6.582;2024-01-30T09:47:46;102446.50;;;9.42;85.96
73457;BME280;61691;53.072;6.582;2024-01-30T09:50:14;102449.50;;;9.51;85.87
73457;BME280;61691;53.072;6.582;2024-01-30T09:52:42;102407.88;;;9.39;85.94
73457;BME280;61691;53.072;6.582;2024-01-30T09:55:09;102451.25;;;9.66;86.15
73457;BME280;61691;53.072;6.582;2024-01-30T09:57:37;102452.50;;;9.75;85.74
73457;BME280;61691;53.072;6.582;2024-01-30T10:00:04;102443.63;;;9.76;85.46
73457;BME280;61691;53.072;6.582;2024-01-30T10:02:34;102432.94;;;9.78;85.61
73457;BME280;61691;53.072;6.582;2024-01-30T10:05:01;102415.25;;;9.78;85.75
73457;BME280;61691;53.072;6.582;2024-01-30T10:07:28;102414.22;;;9.81;85.43
73457;BME280;61691;53.072;6.582;2024-01-30T10:09:56;102419.13;;;9.87;85.50
73457;BME280;61691;53.072;6.582;2024-01-30T10:12:25;102444.81;;;10.00;85.18
73457;BME280;61691;53.072;6.582;2024-01-30T10:14:52;102434.31;;;9.99;85.27
73457;BME280;61691;53.072;6.582;2024-01-30T10:17:19;102423.72;;;9.99;85.43
73457;BME280;61691;53.072;6.582;2024-01-30T10:19:59;102378.38;;;9.75;85.40
73457;BME280;61691;53.072;6.582;2024-01-30T10:22:26;102429.59;;;10.04;85.22
73457;BME280;61691;53.072;6.582;2024-01-30T10:24:53;102439.63;;;10.13;85.26
73457;BME280;61691;53.072;6.582;2024-01-30T10:27:39;102428.09;;;10.14;85.20
73457;BME280;61691;53.072;6.582;2024-01-30T10:30:07;102433.22;;;10.17;85.12
73457;BME280;61691;53.072;6.582;2024-01-30T10:32:34;102441.00;;;10.20;85.16
73457;BME280;61691;53.072;6.582;2024-01-30T10:35:01;102441.78;;;10.22;85.20
73457;BME280;61691;53.072;6.582;2024-01-30T10:37:30;102411.03;;;10.04;85.11
73457;BME280;61691;53.072;6.582;2024-01-30T10:40:02;102449.34;;;10.28;85.18
73457;BME280;61691;53.072;6.582;2024-01-30T10:42:32;102457.09;;;10.31;84.86
73457;BME280;61691;53.072;6.582;2024-01-30T10:45:12;102444.59;;;10.33;85.19
73457;BME280;61691;53.072;6.582;2024-01-30T10:47:40;102425.19;;;10.19;84.98
73457;BME280;61691;53.072;6.582;2024-01-30T10:50:08;102448.19;;;10.32;84.98
73457;BME280;61691;53.072;6.582;2024-01-30T10:52:37;102456.75;;;10.37;85.05
73457;BME280;61691;53.072;6.582;2024-01-30T10:55:04;102447.81;;;10.38;84.95
73457;BME280;61691;53.072;6.582;2024-01-30T10:57:35;102456.53;;;10.40;84.97
73457;BME280;61691;53.072;6.582;2024-01-30T11:00:14;102430.78;;;10.28;84.82
73457;BME280;61691;53.072;6.582;2024-01-30T11:02:46;102463.56;;;10.41;85.00
73457;BME280;61691;53.072;6.582;2024-01-30T11:05:13;102444.59;;;10.33;84.75
73457;BME280;61691;53.072;6.582;2024-01-30T11:07:42;102440.06;;;10.35;84.82
73457;BME280;61691;53.072;6.582;2024-01-30T11:10:11;102421.78;;;10.31;84.88
73457;BME280;61691;53.072;6.582;2024-01-30T11:12:41;102443.09;;;10.43;85.02
73457;BME280;61691;53.072;6.582;2024-01-30T11:15:14;102445.56;;;10.46;84.84
73457;BME280;61691;53.072;6.582;2024-01-30T11:20:21;102451.44;;;10.52;84.98
73457;BME280;61691;53.072;6.582;2024-01-30T11:22:50;102452.19;;;10.54;84.76
73457;BME280;61691;53.072;6.582;2024-01-30T11:25:19;102441.78;;;10.51;84.85
73457;BME280;61691;53.072;6.582;2024-01-30T11:27:49;102445.00;;;10.56;84.79
73457;BME280;61691;53.072;6.582;2024-01-30T11:32:59;102446.31;;;10.63;84.79
73457;BME280;61691;53.072;6.582;2024-01-30T11:35:28;102386.69;;;10.27;84.59
73457;BME280;61691;53.072;6.582;2024-01-30T11:37:57;102455.78;;;10.67;84.55
73457;BME280;61691;53.072;6.582;2024-01-30T11:40:24;102429.06;;;10.56;84.58
73457;BME280;61691;53.072;6.582;2024-01-30T11:42:55;102434.69;;;10.51;84.41
73457;BME280;61691;53.072;6.582;2024-01-30T11:45:22;102430.22;;;10.52;84.56
73457;BME280;61691;53.072;6.582;2024-01-30T11:47:49;102431.34;;;10.47;84.57
73457;BME280;61691;53.072;6.582;2024-01-30T11:50:16;102462.03;;;10.66;84.24
73457;BME280;61691;53.072;6.582;2024-01-30T11:52:43;102447.63;;;10.56;84.11
73457;BME280;61691;53.072;6.582;2024-01-30T11:55:10;102459.28;;;10.53;83.87
73457;BME280;61691;53.072;6.582;2024-01-30T11:57:36;102458.81;;;10.46;84.07
73457;BME280;61691;53.072;6.582;2024-01-30T12:00:04;102450.69;;;10.35;83.90
73457;BME280;61691;53.072;6.582;2024-01-30T12:02:37;102486.47;;;10.42;83.69
73457;BME280;61691;53.072;6.582;2024-01-30T12:05:07;102470.75;;;10.39;83.82
73457;BME280;61691;53.072;6.582;2024-01-30T12:07:34;102464.31;;;10.29;83.50
73457;BME280;61691;53.072;6.582;2024-01-30T12:10:01;102472.44;;;10.26;83.70
73457;BME280;61691;53.072;6.582;2024-01-30T12:12:29;102485.69;;;10.26;83.42
73457;BME280;61691;53.072;6.582;2024-01-30T12:14:56;102465.38;;;10.11;83.73
73457;BME280;61691;53.072;6.582;2024-01-30T12:17:30;102472.19;;;10.15;83.59
73457;BME280;61691;53.072;6.582;2024-01-30T12:20:06;102473.88;;;10.16;83.63
73457;BME280;61691;53.072;6.582;2024-01-30T12:22:40;102468.72;;;10.15;83.64
73457;BME280;61691;53.072;6.582;2024-01-30T12:25:12;102459.91;;;10.14;83.45
73457;BME280;61691;53.072;6.582;2024-01-30T12:27:42;102459.91;;;10.14;83.10
73457;BME280;61691;53.072;6.582;2024-01-30T12:30:13;102466.38;;;10.24;83.40
73457;BME280;61691;53.072;6.582;2024-01-30T12:32:42;102459.72;;;10.17;83.00
73457;BME280;61691;53.072;6.582;2024-01-30T12:35:16;102470.25;;;10.33;82.76
73457;BME280;61691;53.072;6.582;2024-01-30T12:37:45;102486.63;;;10.39;82.75
73457;BME280;61691;53.072;6.582;2024-01-30T12:40:14;102478.59;;;10.41;82.44
73457;BME280;61691;53.072;6.582;2024-01-30T12:42:42;102467.34;;;10.37;82.56
73457;BME280;61691;53.072;6.582;2024-01-30T12:45:09;102475.88;;;10.42;82.20
73457;BME280;61691;53.072;6.582;2024-01-30T12:47:36;102477.75;;;10.40;81.62
73457;BME280;61691;53.072;6.582;2024-01-30T12:50:04;102451.16;;;10.28;81.50
73457;BME280;61691;53.072;6.582;2024-01-30T12:52:31;102479.63;;;10.38;81.22
73457;BME280;61691;53.072;6.582;2024-01-30T12:54:58;102405.06;;;10.00;81.08
73457;BME280;61691;53.072;6.582;2024-01-30T12:57:25;102478.31;;;10.31;81.13
73457;BME280;61691;53.072;6.582;2024-01-30T12:59:51;102369.47;;;9.76;81.09
73457;BME280;61691;53.072;6.582;2024-01-30T13:02:18;102464.47;;;10.26;80.74
73457;BME280;61691;53.072;6.582;2024-01-30T13:04:45;102461.06;;;10.24;80.39